createdAt,value
2022-09-02T00:02:25.305Z,3.33
2022-09-02T00:04:53.199Z,3.80
2022-09-02T00:07:20.990Z,3.47
2022-09-02T00:09:48.750Z,3.20
2022-09-02T00:12:16.824Z,2.97
2022-09-02T00:14:45.952Z,3.47
2022-09-02T00:17:13.868Z,4.00
2022-09-02T00:19:41.567Z,3.70
2022-09-02T00:22:09.418Z,3.80
2022-09-02T00:24:37.340Z,4.00
2022-09-02T00:27:05.422Z,3.97
2022-09-02T00:29:33.443Z,4.07
2022-09-02T00:32:02.615Z,3.80
2022-09-02T00:34:30.328Z,4.00
2022-09-02T00:36:58.053Z,4.03
2022-09-02T00:39:26.222Z,3.63
2022-09-02T00:41:54.114Z,3.70
2022-09-02T00:44:22.681Z,4.00
2022-09-02T00:46:50.577Z,3.77
2022-09-02T00:49:25.121Z,3.73
2022-09-02T00:51:56.428Z,3.60
2022-09-02T00:54:26.802Z,3.80
2022-09-02T00:56:56.255Z,3.80
2022-09-02T00:59:30.109Z,3.80
2022-09-02T01:01:58.356Z,4.10
2022-09-02T01:04:27.570Z,3.93
2022-09-02T01:06:55.261Z,3.67
2022-09-02T01:09:23.295Z,3.67
2022-09-02T01:11:55.450Z,4.17
2022-09-02T01:14:24.084Z,3.93
2022-09-02T01:16:59.905Z,3.43
2022-09-02T01:19:33.994Z,3.50
2022-09-02T01:22:07.055Z,3.90
2022-09-02T01:24:35.730Z,3.57
2022-09-02T01:27:03.781Z,3.57
2022-09-02T01:29:31.517Z,3.57
2022-09-02T01:32:00.435Z,3.80
2022-09-02T01:34:29.146Z,3.70
2022-09-02T01:36:56.957Z,3.00
2022-09-02T01:39:26.070Z,3.87
2022-09-02T01:41:53.918Z,3.50
2022-09-02T01:44:21.750Z,2.97
2022-09-02T01:46:49.496Z,3.40
2022-09-02T01:49:17.327Z,2.97
2022-09-02T01:51:45.070Z,2.97
2022-09-02T01:54:14.067Z,3.10
2022-09-02T01:56:45.305Z,3.53
2022-09-02T01:59:17.935Z,2.80
2022-09-02T02:01:46.220Z,3.17
2022-09-02T02:04:14.444Z,3.13
2022-09-02T02:06:43.615Z,2.73
2022-09-02T02:09:13.454Z,2.93
2022-09-02T02:11:41.658Z,2.73
2022-09-02T02:14:11.135Z,2.90
2022-09-02T02:16:39.192Z,3.13
2022-09-02T02:19:07.258Z,3.10
2022-09-02T02:21:35.190Z,3.13
2022-09-02T02:24:03.325Z,3.17
2022-09-02T02:26:31.188Z,2.60
2022-09-02T02:28:59.188Z,3.23
2022-09-02T02:31:28.286Z,3.20
2022-09-02T02:33:56.141Z,2.77
2022-09-02T02:36:24.017Z,2.73
2022-09-02T02:38:51.747Z,3.00
2022-09-02T02:41:19.428Z,3.23
2022-09-02T02:43:47.809Z,2.80
2022-09-02T02:46:16.466Z,2.97
2022-09-02T02:48:45.826Z,2.77
2022-09-02T02:51:13.578Z,2.73
2022-09-02T02:53:41.722Z,3.03
2022-09-02T02:56:09.871Z,3.40
2022-09-02T02:58:37.802Z,2.80
2022-09-02T03:01:05.708Z,3.00
2022-09-02T03:03:33.363Z,2.90
2022-09-02T03:06:02.959Z,4.10
2022-09-02T03:08:30.793Z,2.90
2022-09-02T03:10:59.108Z,2.90
2022-09-02T03:13:29.528Z,2.73
2022-09-02T03:15:59.804Z,2.90
2022-09-02T03:18:27.649Z,3.10
2022-09-02T03:20:55.563Z,3.10
2022-09-02T03:23:24.729Z,2.30
2022-09-02T03:25:52.623Z,2.93
2022-09-02T03:28:20.377Z,3.03
2022-09-02T03:30:48.738Z,3.53
2022-09-02T03:33:16.716Z,2.97
2022-09-02T03:35:46.354Z,2.57
2022-09-02T03:38:14.897Z,2.93
2022-09-02T03:40:44.504Z,2.73
2022-09-02T03:43:12.335Z,3.10
2022-09-02T03:45:41.965Z,2.47
2022-09-02T03:48:14.325Z,2.60
2022-09-02T03:50:47.247Z,2.30
2022-09-02T03:53:19.364Z,2.80
2022-09-02T03:55:50.641Z,2.67
2022-09-02T03:58:18.891Z,2.70
2022-09-02T04:00:51.682Z,2.80
2022-09-02T04:03:20.197Z,2.30
2022-09-02T04:05:48.389Z,3.40
2022-09-02T04:08:16.157Z,4.10
2022-09-02T04:10:44.442Z,2.73
2022-09-02T04:13:13.549Z,2.50
2022-09-02T04:15:43.017Z,2.70
2022-09-02T04:19:06.182Z,2.63
2022-09-02T04:21:35.881Z,2.67
2022-09-02T04:24:04.024Z,2.73
2022-09-02T04:26:31.846Z,2.77
2022-09-02T04:29:00.880Z,2.53
2022-09-02T04:31:31.968Z,2.47
2022-09-02T04:34:00.188Z,2.53
2022-09-02T04:36:30.870Z,2.60
2022-09-02T04:38:59.177Z,2.50
2022-09-02T04:41:30.613Z,2.63
2022-09-02T04:44:00.883Z,2.60
2022-09-02T04:46:34.594Z,2.20
2022-09-02T04:49:03.004Z,2.70
2022-09-02T04:51:31.659Z,2.70
2022-09-02T04:53:59.632Z,2.87
2022-09-02T04:56:29.179Z,2.90
2022-09-02T04:58:57.054Z,2.73
2022-09-02T05:01:28.866Z,2.80
2022-09-02T05:03:57.274Z,2.77
2022-09-02T05:06:27.419Z,2.20
2022-09-02T05:08:56.303Z,2.60
2022-09-02T05:11:28.577Z,2.30
2022-09-02T05:13:58.801Z,3.20
2022-09-02T05:16:30.004Z,2.27
2022-09-02T05:18:58.410Z,2.90
2022-09-02T05:21:26.385Z,2.70
2022-09-02T05:23:54.541Z,2.73
2022-09-02T05:26:23.108Z,3.17
2022-09-02T05:28:51.031Z,2.87
2022-09-02T05:31:21.354Z,2.90
2022-09-02T05:33:50.778Z,2.73
2022-09-02T05:36:21.153Z,2.67
2022-09-02T05:38:49.963Z,3.17
2022-09-02T05:41:23.355Z,3.00
2022-09-02T05:43:52.455Z,2.30
2022-09-02T05:46:23.333Z,2.77
2022-09-02T05:49:09.313Z,2.50
2022-09-02T05:51:42.687Z,2.53
2022-09-02T05:54:12.474Z,2.37
2022-09-02T05:56:45.204Z,2.53
2022-09-02T05:59:13.763Z,2.83
2022-09-02T06:01:42.052Z,2.50
2022-09-02T06:04:11.107Z,3.13
2022-09-02T06:06:38.835Z,2.73
2022-09-02T06:09:08.416Z,2.83
2022-09-02T06:11:40.185Z,3.33
2022-09-02T06:14:08.524Z,2.37
2022-09-02T06:16:37.215Z,2.90
2022-09-02T06:19:05.649Z,2.90
2022-09-02T06:21:37.144Z,3.00
2022-09-02T06:24:06.134Z,2.67
2022-09-02T06:26:34.094Z,3.43
2022-09-02T06:29:01.842Z,2.97
2022-09-02T06:31:34.507Z,3.23
2022-09-02T06:34:03.604Z,2.67
2022-09-02T06:36:32.677Z,3.13
2022-09-02T06:39:02.273Z,3.03
2022-09-02T06:41:33.458Z,2.93
2022-09-02T06:44:03.238Z,2.67
2022-09-02T06:46:33.595Z,3.17
2022-09-02T06:49:01.944Z,3.00
2022-09-02T06:51:31.756Z,3.00
2022-09-02T06:54:01.671Z,3.67
2022-09-02T06:56:29.881Z,2.97
2022-09-02T06:58:58.457Z,3.00
2022-09-02T07:01:28.414Z,3.07
2022-09-02T07:04:13.962Z,2.83
2022-09-02T07:06:44.287Z,3.40
2022-09-02T07:09:15.711Z,3.43
2022-09-02T07:11:47.946Z,3.07
2022-09-02T07:14:16.124Z,3.20
2022-09-02T07:16:46.529Z,2.73
2022-09-02T07:19:19.898Z,3.73
2022-09-02T07:21:49.009Z,3.00
2022-09-02T07:24:19.205Z,3.00
2022-09-02T07:26:47.024Z,3.00
2022-09-02T07:29:15.047Z,3.13
2022-09-02T07:31:45.377Z,3.13
2022-09-02T07:34:14.453Z,2.20
2022-09-02T07:36:42.620Z,2.00
2022-09-02T07:39:11.965Z,2.43
2022-09-02T07:41:46.793Z,2.37
2022-09-02T07:44:14.667Z,2.10
2022-09-02T07:46:42.459Z,2.03
2022-09-02T07:49:15.573Z,2.37
2022-09-02T07:51:49.198Z,2.17
2022-09-02T07:54:19.012Z,2.10
2022-09-02T07:56:49.733Z,1.90
2022-09-02T07:59:18.314Z,1.50
2022-09-02T08:01:48.253Z,1.70
2022-09-02T08:04:18.680Z,2.90
2022-09-02T08:06:47.046Z,2.20
2022-09-02T08:09:14.973Z,1.90
2022-09-02T08:11:46.496Z,1.90
2022-09-02T08:14:18.868Z,2.30
2022-09-02T08:16:48.021Z,2.00
2022-09-02T08:19:16.148Z,2.00
2022-09-02T08:21:44.153Z,2.30
2022-09-02T08:24:11.931Z,1.80
2022-09-02T08:26:39.652Z,1.63
2022-09-02T08:29:09.617Z,2.00
2022-09-02T08:31:39.588Z,1.88
2022-09-02T08:34:07.404Z,2.00
2022-09-02T08:36:35.046Z,2.00
2022-09-02T08:39:03.556Z,1.67
2022-09-02T08:41:36.007Z,2.10
2022-09-02T08:44:06.123Z,1.45
2022-09-02T08:46:35.980Z,1.40
2022-09-02T08:49:08.178Z,1.48
2022-09-02T08:51:39.150Z,1.15
2022-09-02T08:54:11.646Z,1.40
2022-09-02T08:56:39.975Z,1.40
2022-09-02T08:59:09.477Z,1.65
2022-09-02T09:01:46.759Z,1.35
2022-09-02T09:04:32.537Z,1.38
2022-09-02T09:07:14.286Z,1.45
2022-09-02T09:09:56.463Z,1.88
2022-09-02T09:12:38.672Z,1.23
2022-09-02T09:15:12.870Z,1.48
2022-09-02T09:17:45.415Z,1.33
2022-09-02T09:20:20.453Z,1.50
2022-09-02T09:22:50.868Z,1.13
2022-09-02T09:25:19.645Z,1.02
2022-09-02T09:27:47.329Z,1.42
2022-09-02T09:30:15.936Z,1.20
2022-09-02T09:32:47.437Z,2.20
2022-09-02T09:35:17.884Z,2.90
2022-09-02T09:37:47.940Z,1.48
2022-09-02T09:40:30.438Z,1.75
2022-09-02T09:45:34.964Z,3.80
2022-09-02T09:48:18.991Z,2.50
2022-09-02T09:50:50.093Z,1.42
2022-09-02T09:53:22.110Z,1.55
2022-09-02T09:55:55.422Z,2.22
2022-09-02T09:58:25.964Z,1.38
2022-09-02T10:00:56.376Z,1.83
2022-09-02T10:03:27.125Z,1.10
2022-09-02T10:06:19.922Z,1.13
2022-09-02T10:08:53.499Z,1.25
2022-09-02T10:11:25.078Z,1.40
2022-09-02T10:14:01.372Z,1.67
2022-09-02T10:16:53.140Z,1.70
2022-09-02T10:19:27.929Z,3.50
2022-09-02T10:22:23.300Z,3.80
2022-09-02T10:25:20.438Z,1.60
2022-09-02T10:28:00.983Z,1.17
2022-09-02T10:30:34.431Z,1.38
2022-09-02T10:33:16.614Z,1.10
2022-09-02T10:35:46.595Z,1.20
2022-09-02T10:38:34.224Z,1.30
2022-09-02T10:41:14.853Z,1.05
2022-09-02T10:44:13.690Z,0.95
2022-09-02T10:46:48.958Z,1.13
2022-09-02T10:49:31.472Z,1.13
2022-09-02T10:52:13.077Z,0.90
2022-09-02T10:54:53.366Z,1.10
2022-09-02T10:57:26.646Z,1.00
2022-09-02T11:00:01.816Z,1.10
2022-09-02T11:02:33.084Z,2.25
2022-09-02T11:05:04.085Z,2.13
2022-09-02T11:07:37.207Z,1.58
2022-09-02T11:10:12.478Z,1.00
2022-09-02T11:12:42.962Z,1.00
2022-09-02T11:15:17.358Z,1.42
2022-09-02T11:17:52.744Z,0.90
2022-09-02T11:20:30.806Z,1.27
2022-09-02T11:23:06.908Z,1.05
2022-09-02T11:25:43.028Z,1.02
2022-09-02T11:28:31.851Z,1.58
2022-09-02T11:31:07.665Z,1.02
2022-09-02T11:33:52.128Z,0.90
2022-09-02T11:36:20.930Z,0.95
2022-09-02T11:38:54.000Z,0.73
2022-09-02T11:41:36.848Z,0.90
2022-09-02T11:44:21.869Z,1.00
2022-09-02T11:47:09.981Z,1.85
2022-09-02T11:50:09.589Z,2.20
2022-09-02T11:52:58.028Z,1.73
2022-09-02T11:55:32.547Z,1.58
2022-09-02T11:58:02.755Z,1.20
2022-09-02T12:00:33.173Z,1.10
2022-09-02T12:03:38.869Z,1.00
2022-09-02T12:06:13.628Z,1.05
2022-09-02T12:09:04.004Z,1.10
2022-09-02T12:11:39.840Z,1.17
2022-09-02T12:14:11.871Z,0.80
2022-09-02T12:16:44.740Z,0.85
2022-09-02T12:19:28.097Z,0.88
2022-09-02T12:22:28.738Z,1.20
2022-09-02T12:24:57.368Z,0.90
2022-09-02T12:27:30.310Z,0.93
2022-09-02T12:30:01.472Z,1.80
2022-09-02T12:33:14.378Z,1.35
2022-09-02T12:35:57.611Z,0.90
2022-09-02T12:38:36.654Z,0.90
2022-09-02T12:41:20.360Z,0.93
2022-09-02T12:44:09.823Z,1.23
2022-09-02T12:46:56.834Z,1.08
2022-09-02T12:49:44.507Z,0.80
2022-09-02T12:52:14.223Z,1.00
2022-09-02T12:54:47.810Z,1.00
2022-09-02T12:57:17.316Z,1.13
2022-09-02T12:59:46.922Z,1.00
2022-09-02T13:02:29.730Z,0.75
2022-09-02T13:05:10.589Z,1.10
2022-09-02T13:08:08.047Z,0.80
2022-09-02T13:10:57.541Z,1.45
2022-09-02T13:14:03.993Z,0.90
2022-09-02T13:16:40.690Z,0.90
2022-09-02T13:19:43.458Z,0.98
2022-09-02T13:22:44.784Z,1.08
2022-09-02T13:25:48.234Z,0.90
2022-09-02T13:29:00.218Z,1.00
2022-09-02T13:31:29.329Z,0.95
2022-09-02T13:34:01.470Z,0.90
2022-09-02T13:36:36.457Z,1.08
2022-09-02T13:39:17.925Z,1.10
2022-09-02T13:41:46.127Z,1.13
2022-09-02T13:44:21.100Z,0.85
2022-09-02T13:46:51.049Z,0.80
2022-09-02T13:49:24.825Z,0.90
2022-09-02T13:51:56.649Z,0.70
2022-09-02T13:54:32.963Z,1.13
2022-09-02T13:57:04.816Z,1.00
2022-09-02T13:59:34.375Z,0.82
2022-09-02T14:02:17.777Z,0.90
2022-09-02T14:04:45.978Z,1.08
2022-09-02T14:07:16.827Z,0.95
2022-09-02T14:09:45.928Z,1.10
2022-09-02T14:12:13.938Z,0.95
2022-09-02T14:14:42.611Z,0.75
2022-09-02T14:17:22.215Z,0.73
2022-09-02T14:19:50.528Z,1.10
2022-09-02T14:22:25.743Z,1.02
2022-09-02T14:24:53.943Z,1.00
2022-09-02T14:27:23.954Z,1.08
2022-09-02T14:29:57.592Z,0.90
2022-09-02T14:32:27.047Z,0.90
2022-09-02T14:35:19.890Z,1.10
2022-09-02T14:37:55.755Z,1.20
2022-09-02T14:40:35.371Z,1.35
2022-09-02T14:43:03.606Z,1.00
2022-09-02T14:45:34.103Z,0.88
2022-09-02T14:48:11.356Z,1.10
2022-09-02T14:50:41.426Z,1.05
2022-09-02T14:53:11.726Z,1.10
2022-09-02T14:55:57.739Z,0.95
2022-09-02T14:58:27.339Z,0.90
2022-09-02T15:00:56.969Z,0.80
2022-09-02T15:03:25.381Z,0.80
2022-09-02T15:05:53.861Z,0.90
2022-09-02T15:08:23.485Z,0.90
2022-09-02T15:10:51.288Z,0.90
2022-09-02T15:13:27.123Z,0.80
2022-09-02T15:15:56.007Z,0.90
2022-09-02T15:18:24.051Z,1.17
2022-09-02T15:20:52.280Z,0.70
2022-09-02T15:23:20.173Z,0.90
2022-09-02T15:25:49.472Z,1.15
2022-09-02T15:28:17.186Z,0.65
2022-09-02T15:30:44.963Z,0.70
2022-09-02T15:33:19.793Z,0.80
2022-09-02T15:35:47.902Z,1.00
2022-09-02T15:38:15.843Z,0.95
2022-09-02T15:40:44.164Z,0.70
2022-09-02T15:43:13.963Z,1.20
2022-09-02T15:45:46.602Z,1.10
2022-09-02T15:48:14.448Z,1.00
2022-09-02T15:50:42.905Z,0.93
2022-09-02T15:53:16.122Z,0.85
2022-09-02T15:55:44.116Z,0.80
2022-09-02T15:58:13.147Z,0.80
2022-09-02T16:00:41.330Z,1.00
2022-09-02T16:03:11.671Z,1.05
2022-09-02T16:05:39.407Z,0.77
2022-09-02T16:08:07.142Z,0.93
2022-09-02T16:10:37.499Z,1.05
2022-09-02T16:13:05.632Z,0.77
2022-09-02T16:15:34.807Z,1.17
2022-09-02T16:18:02.544Z,0.90
2022-09-02T16:20:30.240Z,0.93
2022-09-02T16:22:57.998Z,1.10
2022-09-02T16:25:26.240Z,0.80
2022-09-02T16:27:54.939Z,0.82
2022-09-02T16:30:22.918Z,0.95
2022-09-02T16:32:52.822Z,0.80
2022-09-02T16:35:20.513Z,0.85
2022-09-02T16:37:48.610Z,1.00
2022-09-02T16:40:21.434Z,0.95
2022-09-02T16:42:49.398Z,1.08
2022-09-02T16:45:17.366Z,0.85
2022-09-02T16:47:45.103Z,1.10
2022-09-02T16:50:14.234Z,0.93
2022-09-02T16:52:42.064Z,1.08
2022-09-02T16:55:10.591Z,0.90
2022-09-02T16:57:38.274Z,1.45
2022-09-02T17:00:07.407Z,6.80
2022-09-02T17:02:35.574Z,5.70
2022-09-02T17:05:03.379Z,3.97
2022-09-02T17:07:32.377Z,2.17
2022-09-02T17:10:00.149Z,2.38
2022-09-02T17:12:27.918Z,1.92
2022-09-02T17:14:55.656Z,0.95
2022-09-02T17:17:23.345Z,1.02
2022-09-02T17:19:51.234Z,1.10
2022-09-02T17:22:18.974Z,1.20
2022-09-02T17:24:51.796Z,1.40
2022-09-02T17:27:21.507Z,1.90
2022-09-02T17:29:50.004Z,1.13
2022-09-02T17:32:18.605Z,1.58
2022-09-02T17:34:46.383Z,2.13
2022-09-02T17:37:14.058Z,1.65
2022-09-02T17:39:41.792Z,1.38
2022-09-02T17:42:10.248Z,1.40
2022-09-02T17:44:39.717Z,1.83
2022-09-02T17:47:09.600Z,1.42
2022-09-02T17:49:39.110Z,1.60
2022-09-02T17:52:08.427Z,2.40
2022-09-02T17:54:37.629Z,2.60
2022-09-02T17:57:21.179Z,1.77
2022-09-02T18:00:01.964Z,1.83
2022-09-02T18:02:42.201Z,1.85
2022-09-02T18:05:17.363Z,2.45
2022-09-02T18:07:53.706Z,1.60
2022-09-02T18:10:22.488Z,1.48
2022-09-02T18:12:51.540Z,1.35
2022-09-02T18:15:19.634Z,1.50
2022-09-02T18:17:49.058Z,1.52
2022-09-02T18:20:24.835Z,1.50
2022-09-02T18:23:17.383Z,1.15
2022-09-02T18:25:52.973Z,1.23
2022-09-02T18:28:34.880Z,1.67
2022-09-02T18:31:12.139Z,1.85
2022-09-02T18:33:59.605Z,1.20
2022-09-02T18:36:39.096Z,1.20
2022-09-02T18:39:22.033Z,1.58
2022-09-02T18:42:03.266Z,1.10
2022-09-02T18:44:50.568Z,1.27
2022-09-02T18:47:22.187Z,1.75
2022-09-02T18:49:52.562Z,1.52
2022-09-02T18:52:24.925Z,1.38
2022-09-02T18:55:02.280Z,1.13
2022-09-02T18:57:36.531Z,1.30
2022-09-02T19:00:08.886Z,1.10
2022-09-02T19:02:43.836Z,1.30
2022-09-02T19:05:13.475Z,1.10
2022-09-02T19:08:02.244Z,1.25
2022-09-02T19:10:30.052Z,1.40
2022-09-02T19:13:02.546Z,1.50
2022-09-02T19:15:33.748Z,1.40
2022-09-02T19:18:04.782Z,1.35
2022-09-02T19:20:35.298Z,1.52
2022-09-02T19:23:06.202Z,1.75
2022-09-02T19:28:20.769Z,1.45
2022-09-02T19:30:51.103Z,1.60
2022-09-02T19:33:18.864Z,1.40
2022-09-02T19:35:54.397Z,1.48
2022-09-02T19:38:22.134Z,1.40
2022-09-02T19:40:50.265Z,1.33
2022-09-02T19:43:18.841Z,2.00
2022-09-02T19:45:51.270Z,2.00
2022-09-02T19:48:21.278Z,1.40
2022-09-02T19:50:49.361Z,1.55
2022-09-02T19:53:25.653Z,1.45
2022-09-02T19:55:53.946Z,1.40
2022-09-02T19:58:22.260Z,1.40
2022-09-02T20:00:51.427Z,1.40
2022-09-02T20:03:22.863Z,1.37
2022-09-02T20:05:51.805Z,1.75
2022-09-02T20:08:20.063Z,1.60
2022-09-02T20:10:55.966Z,2.40
2022-09-02T20:13:24.879Z,1.50
2022-09-02T20:15:53.865Z,1.37
2022-09-02T20:18:26.580Z,1.77
2022-09-02T20:20:55.908Z,1.40
2022-09-02T20:23:24.086Z,1.33
2022-09-02T20:26:09.017Z,1.30
2022-09-02T20:28:47.452Z,1.30
2022-09-02T20:31:26.687Z,1.60
2022-09-02T20:34:03.693Z,1.38
2022-09-02T20:36:39.461Z,1.33
2022-09-02T20:39:21.696Z,1.50
2022-09-02T20:42:03.952Z,1.70
2022-09-02T20:44:48.819Z,1.53
2022-09-02T20:47:36.596Z,1.63
2022-09-02T20:50:19.657Z,1.45
2022-09-02T20:53:00.938Z,1.05
2022-09-02T20:55:37.064Z,1.40
2022-09-02T20:58:22.800Z,0.90
2022-09-02T21:01:06.554Z,1.30
2022-09-02T21:03:42.604Z,1.20
2022-09-02T21:06:12.140Z,1.23
2022-09-02T21:08:49.030Z,1.40
2022-09-02T21:11:18.310Z,0.87
2022-09-02T21:13:51.435Z,1.30
2022-09-02T21:16:24.529Z,1.00
2022-09-02T21:19:07.299Z,1.07
2022-09-02T21:21:44.817Z,0.93
2022-09-02T21:24:19.216Z,1.00
2022-09-02T21:26:55.655Z,1.00
2022-09-02T21:29:30.849Z,1.20
2022-09-02T21:32:03.948Z,1.07
2022-09-02T21:34:38.033Z,1.20
2022-09-02T21:37:09.849Z,1.10
2022-09-02T21:39:44.603Z,1.33
2022-09-02T21:42:23.320Z,1.37
2022-09-02T21:45:06.440Z,1.27
2022-09-02T21:47:39.580Z,1.10
2022-09-02T21:50:11.147Z,1.43
2022-09-02T21:52:50.886Z,1.30
2022-09-02T21:55:32.443Z,1.13
2022-09-02T21:58:12.645Z,1.47
2022-09-02T22:00:46.998Z,1.60
2022-09-02T22:03:18.042Z,1.40
2022-09-02T22:05:52.477Z,1.07
2022-09-02T22:08:33.645Z,1.27
2022-09-02T22:11:09.816Z,1.43
2022-09-02T22:13:41.804Z,1.70
2022-09-02T22:16:28.138Z,1.60
2022-09-02T22:19:02.214Z,1.50
2022-09-02T22:21:37.912Z,1.47
2022-09-02T22:24:08.222Z,1.67
2022-09-02T22:26:41.487Z,1.57
2022-09-02T22:29:18.041Z,1.53
2022-09-02T22:31:48.766Z,1.73
2022-09-02T22:34:23.542Z,1.10
2022-09-02T22:37:00.495Z,1.40
2022-09-02T22:39:38.608Z,1.43
2022-09-02T22:42:15.982Z,1.17
2022-09-02T22:45:05.472Z,1.20
2022-09-02T22:47:53.906Z,1.20
2022-09-02T22:50:46.390Z,1.20
2022-09-02T22:53:14.053Z,1.23
2022-09-02T22:55:54.534Z,1.20
2022-09-02T22:58:58.385Z,1.03
2022-09-02T23:01:34.432Z,1.23
2022-09-02T23:04:24.758Z,1.33
2022-09-02T23:06:55.048Z,1.50
2022-09-02T23:09:22.729Z,1.70
2022-09-02T23:12:00.864Z,1.47
2022-09-02T23:14:38.842Z,1.40
2022-09-02T23:17:23.757Z,1.20
2022-09-02T23:20:01.303Z,1.40
2022-09-02T23:22:41.902Z,1.43
2022-09-02T23:25:24.336Z,1.33
2022-09-02T23:28:03.856Z,1.23
2022-09-02T23:30:31.824Z,1.87
2022-09-02T23:33:14.115Z,1.30
2022-09-02T23:35:48.137Z,2.00
2022-09-02T23:38:27.974Z,1.50
2022-09-02T23:41:04.753Z,1.67
2022-09-02T23:43:34.767Z,1.60
2022-09-02T23:46:19.938Z,1.70
2022-09-02T23:48:54.173Z,2.03
2022-09-02T23:51:32.177Z,1.73
2022-09-02T23:54:17.970Z,1.83
2022-09-02T23:57:03.970Z,1.53
2022-09-02T23:59:50.588Z,1.53
